sensor_id;sensor_type;location;lat;lon;timestamp;temperature;humidity
28530;DHT22;15737;49.760;6.632;2022-12-05T00:01:18;1.50;99.90
28530;DHT22;15737;49.760;6.632;2022-12-05T00:03:46;1.60;99.90
28530;DHT22;15737;49.760;6.632;2022-12-05T00:06:12;1.50;99.90
28530;DHT22;15737;49.760;6.632;2022-12-05T00:08:43;1.60;99.90
28530;DHT22;15737;49.760;6.632;2022-12-05T00:11:20;1.50;99.90
28530;DHT22;15737;49.760;6.632;2022-12-05T00:13:47;1.60;99.90
28530;DHT22;15737;49.760;6.632;2022-12-05T00:16:16;1.60;99.90
28530;DHT22;15737;49.760;6.632;2022-12-05T00:18:42;1.50;99.90
28530;DHT22;15737;49.760;6.632;2022-12-05T00:21:14;1.50;99.90
28530;DHT22;15737;49.760;6.632;2022-12-05T00:28:44;1.30;99.90
28530;DHT22;15737;49.760;6.632;2022-12-05T00:31:14;1.40;99.90
28530;DHT22;15737;49.760;6.632;2022-12-05T00:33:41;1.50;99.90
28530;DHT22;15737;49.760;6.632;2022-12-05T00:36:10;1.40;99.90
28530;DHT22;15737;49.760;6.632;2022-12-05T00:41:09;1.20;99.90
28530;DHT22;15737;49.760;6.632;2022-12-05T00:43:35;1.30;99.90
28530;DHT22;15737;49.760;6.632;2022-12-05T00:46:02;1.50;99.90
28530;DHT22;15737;49.760;6.632;2022-12-05T00:48:28;1.60;99.90
28530;DHT22;15737;49.760;6.632;2022-12-05T00:51:02;1.70;99.90
28530;DHT22;15737;49.760;6.632;2022-12-05T00:56:13;1.80;99.90
28530;DHT22;15737;49.760;6.632;2022-12-05T00:58:39;1.80;99.90
28530;DHT22;15737;49.760;6.632;2022-12-05T01:03:31;1.50;99.90
28530;DHT22;15737;49.760;6.632;2022-12-05T01:05:58;1.50;99.90
28530;DHT22;15737;49.760;6.632;2022-12-05T01:10:57;1.40;99.90
28530;DHT22;15737;49.760;6.632;2022-12-05T01:13:24;1.50;99.90
28530;DHT22;15737;49.760;6.632;2022-12-05T01:15:50;1.70;99.90
28530;DHT22;15737;49.760;6.632;2022-12-05T01:18:16;2.00;99.90
28530;DHT22;15737;49.760;6.632;2022-12-05T01:20:42;2.30;99.90
28530;DHT22;15737;49.760;6.632;2022-12-05T01:23:08;2.50;99.90
28530;DHT22;15737;49.760;6.632;2022-12-05T01:25:34;2.60;99.90
28530;DHT22;15737;49.760;6.632;2022-12-05T01:28:00;2.70;99.90
28530;DHT22;15737;49.760;6.632;2022-12-05T01:30:25;2.70;99.90
28530;DHT22;15737;49.760;6.632;2022-12-05T01:32:51;2.70;99.90
28530;DHT22;15737;49.760;6.632;2022-12-05T01:35:17;2.70;99.90
28530;DHT22;15737;49.760;6.632;2022-12-05T01:37:42;2.70;99.90
28530;DHT22;15737;49.760;6.632;2022-12-05T01:40:09;2.60;99.90
28530;DHT22;15737;49.760;6.632;2022-12-05T01:42:35;2.50;99.90
28530;DHT22;15737;49.760;6.632;2022-12-05T01:45:15;2.50;99.90
28530;DHT22;15737;49.760;6.632;2022-12-05T01:47:40;2.50;99.90
28530;DHT22;15737;49.760;6.632;2022-12-05T01:50:19;2.40;99.90
28530;DHT22;15737;49.760;6.632;2022-12-05T01:52:44;2.50;99.90
28530;DHT22;15737;49.760;6.632;2022-12-05T01:55:12;2.60;99.90
28530;DHT22;15737;49.760;6.632;2022-12-05T01:57:39;2.70;99.90
28530;DHT22;15737;49.760;6.632;2022-12-05T02:00:11;2.50;99.90
28530;DHT22;15737;49.760;6.632;2022-12-05T02:02:39;2.30;99.90
28530;DHT22;15737;49.760;6.632;2022-12-05T02:05:21;2.10;99.90
28530;DHT22;15737;49.760;6.632;2022-12-05T02:07:47;2.00;99.90
28530;DHT22;15737;49.760;6.632;2022-12-05T02:10:13;2.00;99.90
28530;DHT22;15737;49.760;6.632;2022-12-05T02:12:39;2.10;99.90
28530;DHT22;15737;49.760;6.632;2022-12-05T02:15:16;2.30;99.90
28530;DHT22;15737;49.760;6.632;2022-12-05T02:26:40;2.50;99.90
28530;DHT22;15737;49.760;6.632;2022-12-05T02:38:10;2.00;99.90
28530;DHT22;15737;49.760;6.632;2022-12-05T02:40:43;2.00;99.90
28530;DHT22;15737;49.760;6.632;2022-12-05T02:46:19;2.20;99.90
28530;DHT22;15737;49.760;6.632;2022-12-05T02:48:46;2.20;99.90
28530;DHT22;15737;49.760;6.632;2022-12-05T02:51:21;2.30;99.90
28530;DHT22;15737;49.760;6.632;2022-12-05T02:53:49;2.40;99.90
28530;DHT22;15737;49.760;6.632;2022-12-05T02:56:16;2.60;99.90
28530;DHT22;15737;49.760;6.632;2022-12-05T02:58:53;2.70;99.90
28530;DHT22;15737;49.760;6.632;2022-12-05T03:01:33;2.80;99.90
28530;DHT22;15737;49.760;6.632;2022-12-05T03:04:01;2.80;99.90
28530;DHT22;15737;49.760;6.632;2022-12-05T03:06:34;2.90;99.90
28530;DHT22;15737;49.760;6.632;2022-12-05T03:09:06;2.90;99.90
28530;DHT22;15737;49.760;6.632;2022-12-05T03:14:37;2.60;99.90
28530;DHT22;15737;49.760;6.632;2022-12-05T03:17:08;2.40;99.90
28530;DHT22;15737;49.760;6.632;2022-12-05T03:20:11;2.20;99.90
28530;DHT22;15737;49.760;6.632;2022-12-05T03:22:45;2.10;99.90
28530;DHT22;15737;49.760;6.632;2022-12-05T03:25:58;2.00;99.90
28530;DHT22;15737;49.760;6.632;2022-12-05T03:28:34;2.00;99.90
28530;DHT22;15737;49.760;6.632;2022-12-05T03:31:07;2.00;99.90
28530;DHT22;15737;49.760;6.632;2022-12-05T03:33:39;2.10;99.90
28530;DHT22;15737;49.760;6.632;2022-12-05T03:36:15;2.30;99.90
28530;DHT22;15737;49.760;6.632;2022-12-05T03:38:49;2.50;99.90
28530;DHT22;15737;49.760;6.632;2022-12-05T03:46:46;2.60;99.90
28530;DHT22;15737;49.760;6.632;2022-12-05T03:49:56;2.80;99.90
28530;DHT22;15737;49.760;6.632;2022-12-05T03:52:33;2.90;99.90
28530;DHT22;15737;49.760;6.632;2022-12-05T03:55:03;3.00;99.90
28530;DHT22;15737;49.760;6.632;2022-12-05T03:57:30;3.10;99.90
28530;DHT22;15737;49.760;6.632;2022-12-05T04:00:10;3.00;99.90
28530;DHT22;15737;49.760;6.632;2022-12-05T04:02:48;2.80;99.90
28530;DHT22;15737;49.760;6.632;2022-12-05T04:05:28;2.60;99.90
28530;DHT22;15737;49.760;6.632;2022-12-05T04:07:58;2.50;99.90
28530;DHT22;15737;49.760;6.632;2022-12-05T04:10:28;2.70;99.90
28530;DHT22;15737;49.760;6.632;2022-12-05T04:12:57;2.80;99.90
28530;DHT22;15737;49.760;6.632;2022-12-05T04:15:43;2.90;99.90
28530;DHT22;15737;49.760;6.632;2022-12-05T04:18:31;2.90;99.90
28530;DHT22;15737;49.760;6.632;2022-12-05T04:20:57;3.00;99.90
28530;DHT22;15737;49.760;6.632;2022-12-05T04:23:45;3.10;99.90
28530;DHT22;15737;49.760;6.632;2022-12-05T04:26:30;3.10;99.90
28530;DHT22;15737;49.760;6.632;2022-12-05T04:29:07;2.90;99.90
28530;DHT22;15737;49.760;6.632;2022-12-05T04:31:53;3.00;99.90
28530;DHT22;15737;49.760;6.632;2022-12-05T04:34:22;3.00;99.90
28530;DHT22;15737;49.760;6.632;2022-12-05T04:36:59;3.10;99.90
28530;DHT22;15737;49.760;6.632;2022-12-05T04:39:36;3.10;99.90
28530;DHT22;15737;49.760;6.632;2022-12-05T04:42:07;3.10;99.90
28530;DHT22;15737;49.760;6.632;2022-12-05T04:44:39;3.00;99.90
28530;DHT22;15737;49.760;6.632;2022-12-05T04:47:07;2.60;99.90
28530;DHT22;15737;49.760;6.632;2022-12-05T04:49:49;2.40;99.90
28530;DHT22;15737;49.760;6.632;2022-12-05T04:52:16;2.40;99.90
28530;DHT22;15737;49.760;6.632;2022-12-05T04:54:52;2.40;99.90
28530;DHT22;15737;49.760;6.632;2022-12-05T04:57:24;2.60;99.90
28530;DHT22;15737;49.760;6.632;2022-12-05T04:59:51;2.70;99.90
28530;DHT22;15737;49.760;6.632;2022-12-05T05:02:20;2.80;99.90
28530;DHT22;15737;49.760;6.632;2022-12-05T05:04:51;2.90;99.90
28530;DHT22;15737;49.760;6.632;2022-12-05T05:07:18;3.00;99.90
28530;DHT22;15737;49.760;6.632;2022-12-05T05:09:44;3.00;99.90
28530;DHT22;15737;49.760;6.632;2022-12-05T05:12:10;3.00;99.90
28530;DHT22;15737;49.760;6.632;2022-12-05T05:14:35;3.10;99.90
28530;DHT22;15737;49.760;6.632;2022-12-05T05:17:02;3.10;99.90
28530;DHT22;15737;49.760;6.632;2022-12-05T05:19:28;3.20;99.90
28530;DHT22;15737;49.760;6.632;2022-12-05T05:22:05;3.30;99.90
28530;DHT22;15737;49.760;6.632;2022-12-05T05:24:30;3.40;99.90
28530;DHT22;15737;49.760;6.632;2022-12-05T05:26:56;3.40;99.90
28530;DHT22;15737;49.760;6.632;2022-12-05T05:29:21;3.50;99.90
28530;DHT22;15737;49.760;6.632;2022-12-05T05:31:47;3.50;99.90
28530;DHT22;15737;49.760;6.632;2022-12-05T05:34:12;3.50;99.90
28530;DHT22;15737;49.760;6.632;2022-12-05T05:36:40;3.50;99.90
28530;DHT22;15737;49.760;6.632;2022-12-05T05:39:11;3.50;99.90
28530;DHT22;15737;49.760;6.632;2022-12-05T05:41:37;3.50;99.90
28530;DHT22;15737;49.760;6.632;2022-12-05T05:44:03;3.40;99.90
28530;DHT22;15737;49.760;6.632;2022-12-05T05:46:31;3.50;99.90
28530;DHT22;15737;49.760;6.632;2022-12-05T05:48:57;3.50;99.90
28530;DHT22;15737;49.760;6.632;2022-12-05T05:51:24;3.50;99.90
28530;DHT22;15737;49.760;6.632;2022-12-05T05:53:54;3.50;99.90
28530;DHT22;15737;49.760;6.632;2022-12-05T05:56:20;3.50;99.90
28530;DHT22;15737;49.760;6.632;2022-12-05T05:58:46;3.60;99.90
28530;DHT22;15737;49.760;6.632;2022-12-05T06:01:24;3.60;99.90
28530;DHT22;15737;49.760;6.632;2022-12-05T06:03:50;3.50;99.90
28530;DHT22;15737;49.760;6.632;2022-12-05T06:06:16;3.50;99.90
28530;DHT22;15737;49.760;6.632;2022-12-05T06:08:44;3.50;99.90
28530;DHT22;15737;49.760;6.632;2022-12-05T06:11:19;3.50;99.90
28530;DHT22;15737;49.760;6.632;2022-12-05T06:13:45;3.40;99.90
28530;DHT22;15737;49.760;6.632;2022-12-05T06:16:28;3.30;99.90
28530;DHT22;15737;49.760;6.632;2022-12-05T06:18:54;3.40;99.90
28530;DHT22;15737;49.760;6.632;2022-12-05T06:21:21;3.40;99.90
28530;DHT22;15737;49.760;6.632;2022-12-05T06:23:47;3.30;99.90
28530;DHT22;15737;49.760;6.632;2022-12-05T06:26:16;3.40;99.90
28530;DHT22;15737;49.760;6.632;2022-12-05T06:28:43;3.40;99.90
28530;DHT22;15737;49.760;6.632;2022-12-05T06:31:23;3.50;99.90
28530;DHT22;15737;49.760;6.632;2022-12-05T06:33:51;3.60;99.90
28530;DHT22;15737;49.760;6.632;2022-12-05T06:36:19;3.60;99.90
28530;DHT22;15737;49.760;6.632;2022-12-05T06:38:45;3.60;99.90
28530;DHT22;15737;49.760;6.632;2022-12-05T06:41:14;3.60;99.90
28530;DHT22;15737;49.760;6.632;2022-12-05T06:43:40;3.60;99.90
28530;DHT22;15737;49.760;6.632;2022-12-05T06:46:29;3.60;99.90
28530;DHT22;15737;49.760;6.632;2022-12-05T06:48:55;3.60;99.90
28530;DHT22;15737;49.760;6.632;2022-12-05T06:51:21;3.50;99.90
28530;DHT22;15737;49.760;6.632;2022-12-05T06:53:47;3.40;99.90
28530;DHT22;15737;49.760;6.632;2022-12-05T06:56:15;3.20;99.90
28530;DHT22;15737;49.760;6.632;2022-12-05T06:58:43;3.10;99.90
28530;DHT22;15737;49.760;6.632;2022-12-05T07:01:17;3.00;99.90
28530;DHT22;15737;49.760;6.632;2022-12-05T07:04:19;2.90;99.90
28530;DHT22;15737;49.760;6.632;2022-12-05T07:06:47;3.20;99.90
28530;DHT22;15737;49.760;6.632;2022-12-05T07:09:20;3.30;99.90
28530;DHT22;15737;49.760;6.632;2022-12-05T07:11:49;3.10;99.90
28530;DHT22;15737;49.760;6.632;2022-12-05T07:14:16;2.80;99.90
28530;DHT22;15737;49.760;6.632;2022-12-05T07:16:42;2.50;99.90
28530;DHT22;15737;49.760;6.632;2022-12-05T07:19:09;2.40;99.90
28530;DHT22;15737;49.760;6.632;2022-12-05T07:21:34;2.50;99.90
28530;DHT22;15737;49.760;6.632;2022-12-05T07:24:00;2.70;99.90
28530;DHT22;15737;49.760;6.632;2022-12-05T07:26:25;2.90;99.90
28530;DHT22;15737;49.760;6.632;2022-12-05T07:28:54;3.10;99.90
28530;DHT22;15737;49.760;6.632;2022-12-05T07:31:21;3.20;99.90
28530;DHT22;15737;49.760;6.632;2022-12-05T07:33:50;3.20;99.90
28530;DHT22;15737;49.760;6.632;2022-12-05T07:36:19;3.00;99.90
28530;DHT22;15737;49.760;6.632;2022-12-05T07:38:45;2.70;99.90
28530;DHT22;15737;49.760;6.632;2022-12-05T07:41:21;2.50;99.90
28530;DHT22;15737;49.760;6.632;2022-12-05T07:43:49;2.50;99.90
28530;DHT22;15737;49.760;6.632;2022-12-05T07:46:14;2.70;99.90
28530;DHT22;15737;49.760;6.632;2022-12-05T07:48:40;2.90;99.90
28530;DHT22;15737;49.760;6.632;2022-12-05T07:51:07;3.10;99.90
28530;DHT22;15737;49.760;6.632;2022-12-05T07:53:34;3.00;99.90
28530;DHT22;15737;49.760;6.632;2022-12-05T07:56:02;3.10;99.90
28530;DHT22;15737;49.760;6.632;2022-12-05T07:58:29;3.30;99.90
28530;DHT22;15737;49.760;6.632;2022-12-05T08:01:09;3.40;99.90
28530;DHT22;15737;49.760;6.632;2022-12-05T08:03:35;3.60;99.90
28530;DHT22;15737;49.760;6.632;2022-12-05T08:06:07;3.70;99.90
28530;DHT22;15737;49.760;6.632;2022-12-05T08:08:33;3.80;99.90
28530;DHT22;15737;49.760;6.632;2022-12-05T08:11:04;3.80;99.90
28530;DHT22;15737;49.760;6.632;2022-12-05T08:13:30;3.90;99.90
28530;DHT22;15737;49.760;6.632;2022-12-05T08:16:03;3.90;99.90
28530;DHT22;15737;49.760;6.632;2022-12-05T08:18:29;3.90;99.90
28530;DHT22;15737;49.760;6.632;2022-12-05T08:20:59;4.00;99.90
28530;DHT22;15737;49.760;6.632;2022-12-05T08:23:27;4.00;99.90
28530;DHT22;15737;49.760;6.632;2022-12-05T08:25:53;4.10;99.90
28530;DHT22;15737;49.760;6.632;2022-12-05T08:28:18;4.10;99.90
28530;DHT22;15737;49.760;6.632;2022-12-05T08:31:01;4.20;99.90
28530;DHT22;15737;49.760;6.632;2022-12-05T08:33:27;4.00;99.90
28530;DHT22;15737;49.760;6.632;2022-12-05T08:35:52;4.00;99.90
28530;DHT22;15737;49.760;6.632;2022-12-05T08:38:18;4.00;99.90
28530;DHT22;15737;49.760;6.632;2022-12-05T08:40:43;4.00;99.90
28530;DHT22;15737;49.760;6.632;2022-12-05T08:43:12;4.00;99.90
28530;DHT22;15737;49.760;6.632;2022-12-05T08:45:53;4.10;99.90
28530;DHT22;15737;49.760;6.632;2022-12-05T08:48:20;4.20;99.90
28530;DHT22;15737;49.760;6.632;2022-12-05T08:50:46;4.30;99.90
28530;DHT22;15737;49.760;6.632;2022-12-05T08:53:12;4.40;99.90
28530;DHT22;15737;49.760;6.632;2022-12-05T08:55:38;4.50;99.90
28530;DHT22;15737;49.760;6.632;2022-12-05T08:58:03;4.50;99.90
28530;DHT22;15737;49.760;6.632;2022-12-05T09:00:29;4.50;99.90
28530;DHT22;15737;49.760;6.632;2022-12-05T09:02:56;4.50;99.90
28530;DHT22;15737;49.760;6.632;2022-12-05T09:05:22;4.40;99.90
28530;DHT22;15737;49.760;6.632;2022-12-05T09:07:48;4.30;99.90
28530;DHT22;15737;49.760;6.632;2022-12-05T09:10:14;4.40;99.90
28530;DHT22;15737;49.760;6.632;2022-12-05T09:15:12;4.40;99.90
28530;DHT22;15737;49.760;6.632;2022-12-05T09:17:38;4.40;99.90
28530;DHT22;15737;49.760;6.632;2022-12-05T09:20:05;4.50;99.90
28530;DHT22;15737;49.760;6.632;2022-12-05T09:22:31;4.50;99.90
28530;DHT22;15737;49.760;6.632;2022-12-05T09:24:57;4.40;99.90
28530;DHT22;15737;49.760;6.632;2022-12-05T09:27:22;4.30;99.90
28530;DHT22;15737;49.760;6.632;2022-12-05T09:29:48;4.20;99.90
28530;DHT22;15737;49.760;6.632;2022-12-05T09:32:14;4.00;99.90
28530;DHT22;15737;49.760;6.632;2022-12-05T09:34:39;4.00;99.90
28530;DHT22;15737;49.760;6.632;2022-12-05T09:37:05;3.90;99.90
28530;DHT22;15737;49.760;6.632;2022-12-05T09:39:47;3.80;99.90
28530;DHT22;15737;49.760;6.632;2022-12-05T09:45:29;3.70;99.90
28530;DHT22;15737;49.760;6.632;2022-12-05T09:48:14;3.80;99.90
28530;DHT22;15737;49.760;6.632;2022-12-05T09:50:46;3.60;99.90
28530;DHT22;15737;49.760;6.632;2022-12-05T09:53:34;3.50;99.90
28530;DHT22;15737;49.760;6.632;2022-12-05T10:01:35;4.10;99.90
28530;DHT22;15737;49.760;6.632;2022-12-05T10:04:06;4.00;99.90
28530;DHT22;15737;49.760;6.632;2022-12-05T10:11:52;4.40;99.90
28530;DHT22;15737;49.760;6.632;2022-12-05T10:14:36;4.00;99.90
28530;DHT22;15737;49.760;6.632;2022-12-05T10:17:22;3.70;99.90
28530;DHT22;15737;49.760;6.632;2022-12-05T10:19:51;3.60;99.90
28530;DHT22;15737;49.760;6.632;2022-12-05T10:25:09;4.00;99.90
28530;DHT22;15737;49.760;6.632;2022-12-05T10:27:39;4.30;99.90
28530;DHT22;15737;49.760;6.632;2022-12-05T10:30:20;4.40;99.90
28530;DHT22;15737;49.760;6.632;2022-12-05T10:32:55;4.40;99.90
28530;DHT22;15737;49.760;6.632;2022-12-05T10:35:33;4.40;99.90
28530;DHT22;15737;49.760;6.632;2022-12-05T10:38:04;4.70;99.90
28530;DHT22;15737;49.760;6.632;2022-12-05T10:40:37;4.90;99.90
28530;DHT22;15737;49.760;6.632;2022-12-05T10:43:05;5.10;99.90
28530;DHT22;15737;49.760;6.632;2022-12-05T10:45:41;5.20;99.90
28530;DHT22;15737;49.760;6.632;2022-12-05T10:48:21;5.30;99.90
28530;DHT22;15737;49.760;6.632;2022-12-05T10:50:53;5.40;99.90
28530;DHT22;15737;49.760;6.632;2022-12-05T10:56:02;5.30;99.90
28530;DHT22;15737;49.760;6.632;2022-12-05T10:58:28;5.00;99.90
28530;DHT22;15737;49.760;6.632;2022-12-05T11:01:07;4.60;99.90
28530;DHT22;15737;49.760;6.632;2022-12-05T11:03:38;4.30;99.90
28530;DHT22;15737;49.760;6.632;2022-12-05T11:06:23;4.20;99.90
28530;DHT22;15737;49.760;6.632;2022-12-05T11:08:57;4.40;99.90
28530;DHT22;15737;49.760;6.632;2022-12-05T11:11:28;4.80;99.90
28530;DHT22;15737;49.760;6.632;2022-12-05T11:14:00;4.70;99.90
28530;DHT22;15737;49.760;6.632;2022-12-05T11:16:32;4.80;99.90
28530;DHT22;15737;49.760;6.632;2022-12-05T11:21:47;4.80;99.90
28530;DHT22;15737;49.760;6.632;2022-12-05T11:26:46;4.30;99.90
28530;DHT22;15737;49.760;6.632;2022-12-05T11:32:45;4.50;99.90
28530;DHT22;15737;49.760;6.632;2022-12-05T11:37:52;4.30;99.90
28530;DHT22;15737;49.760;6.632;2022-12-05T11:40:41;4.30;99.90
28530;DHT22;15737;49.760;6.632;2022-12-05T11:56:53;4.50;99.90
28530;DHT22;15737;49.760;6.632;2022-12-05T11:59:48;4.30;99.90
28530;DHT22;15737;49.760;6.632;2022-12-05T12:02:36;4.20;99.90
28530;DHT22;15737;49.760;6.632;2022-12-05T12:05:13;4.20;99.90
28530;DHT22;15737;49.760;6.632;2022-12-05T12:07:57;4.40;99.90
28530;DHT22;15737;49.760;6.632;2022-12-05T12:15:56;4.30;99.90
28530;DHT22;15737;49.760;6.632;2022-12-05T12:18:53;4.50;99.90
28530;DHT22;15737;49.760;6.632;2022-12-05T12:24:16;4.60;99.90
28530;DHT22;15737;49.760;6.632;2022-12-05T12:29:49;4.60;99.90
28530;DHT22;15737;49.760;6.632;2022-12-05T12:35:31;4.30;99.90
28530;DHT22;15737;49.760;6.632;2022-12-05T12:40:55;4.10;99.90
28530;DHT22;15737;49.760;6.632;2022-12-05T12:46:57;4.40;99.90
28530;DHT22;15737;49.760;6.632;2022-12-05T12:52:17;4.10;99.90
28530;DHT22;15737;49.760;6.632;2022-12-05T12:57:22;4.00;99.90
28530;DHT22;15737;49.760;6.632;2022-12-05T13:00:01;4.00;99.90
28530;DHT22;15737;49.760;6.632;2022-12-05T13:02:51;4.00;99.90
28530;DHT22;15737;49.760;6.632;2022-12-05T13:06:01;4.00;99.90
28530;DHT22;15737;49.760;6.632;2022-12-05T13:08:35;4.20;99.90
28530;DHT22;15737;49.760;6.632;2022-12-05T13:11:06;4.50;99.90
28530;DHT22;15737;49.760;6.632;2022-12-05T13:13:36;4.80;99.90
28530;DHT22;15737;49.760;6.632;2022-12-05T13:16:05;5.10;99.90
28530;DHT22;15737;49.760;6.632;2022-12-05T13:18:33;5.40;99.90
28530;DHT22;15737;49.760;6.632;2022-12-05T13:21:04;5.50;99.90
28530;DHT22;15737;49.760;6.632;2022-12-05T13:23:31;5.30;99.90
28530;DHT22;15737;49.760;6.632;2022-12-05T13:26:00;5.10;99.90
28530;DHT22;15737;49.760;6.632;2022-12-05T13:28:31;5.20;99.90
28530;DHT22;15737;49.760;6.632;2022-12-05T13:31:00;5.30;99.90
28530;DHT22;15737;49.760;6.632;2022-12-05T13:33:35;5.30;99.90
28530;DHT22;15737;49.760;6.632;2022-12-05T13:36:10;5.20;99.90
28530;DHT22;15737;49.760;6.632;2022-12-05T13:38:56;4.90;99.90
28530;DHT22;15737;49.760;6.632;2022-12-05T13:41:47;4.80;99.90
28530;DHT22;15737;49.760;6.632;2022-12-05T13:44:44;4.80;99.90
28530;DHT22;15737;49.760;6.632;2022-12-05T13:53:05;5.50;99.90
28530;DHT22;15737;49.760;6.632;2022-12-05T13:55:37;5.60;99.90
28530;DHT22;15737;49.760;6.632;2022-12-05T14:00:48;5.20;99.90
28530;DHT22;15737;49.760;6.632;2022-12-05T14:05:52;5.20;99.90
28530;DHT22;15737;49.760;6.632;2022-12-05T14:21:44;5.20;99.90
28530;DHT22;15737;49.760;6.632;2022-12-05T14:27:23;4.90;99.90
28530;DHT22;15737;49.760;6.632;2022-12-05T14:30:03;5.00;99.90
28530;DHT22;15737;49.760;6.632;2022-12-05T14:32:39;5.40;99.90
28530;DHT22;15737;49.760;6.632;2022-12-05T14:38:03;5.50;99.90
28530;DHT22;15737;49.760;6.632;2022-12-05T14:40:39;5.70;99.90
28530;DHT22;15737;49.760;6.632;2022-12-05T14:48:35;5.80;99.90
28530;DHT22;15737;49.760;6.632;2022-12-05T14:54:16;5.80;99.90
28530;DHT22;15737;49.760;6.632;2022-12-05T14:59:27;5.80;99.90
28530;DHT22;15737;49.760;6.632;2022-12-05T15:02:04;5.80;99.90
28530;DHT22;15737;49.760;6.632;2022-12-05T15:04:47;5.60;99.90
28530;DHT22;15737;49.760;6.632;2022-12-05T15:07:35;5.50;99.90
28530;DHT22;15737;49.760;6.632;2022-12-05T15:17:47;4.90;99.90
28530;DHT22;15737;49.760;6.632;2022-12-05T15:20:31;5.00;99.90
28530;DHT22;15737;49.760;6.632;2022-12-05T15:22:58;5.10;99.90
28530;DHT22;15737;49.760;6.632;2022-12-05T15:25:29;5.30;99.90
28530;DHT22;15737;49.760;6.632;2022-12-05T15:28:00;5.20;99.90
28530;DHT22;15737;49.760;6.632;2022-12-05T15:30:36;5.10;99.90
28530;DHT22;15737;49.760;6.632;2022-12-05T15:33:03;5.20;99.90
28530;DHT22;15737;49.760;6.632;2022-12-05T15:35:31;5.20;99.90
28530;DHT22;15737;49.760;6.632;2022-12-05T15:38:03;5.30;99.90
28530;DHT22;15737;49.760;6.632;2022-12-05T15:40:35;5.20;99.90
28530;DHT22;15737;49.760;6.632;2022-12-05T15:45:47;4.80;99.90
28530;DHT22;15737;49.760;6.632;2022-12-05T15:48:14;4.90;99.90
28530;DHT22;15737;49.760;6.632;2022-12-05T15:50:47;5.10;99.90
28530;DHT22;15737;49.760;6.632;2022-12-05T15:53:39;5.20;99.90
28530;DHT22;15737;49.760;6.632;2022-12-05T15:56:14;5.30;99.90
28530;DHT22;15737;49.760;6.632;2022-12-05T15:58:54;5.30;99.90
28530;DHT22;15737;49.760;6.632;2022-12-05T16:01:25;5.40;99.90
28530;DHT22;15737;49.760;6.632;2022-12-05T16:04:03;5.30;99.90
28530;DHT22;15737;49.760;6.632;2022-12-05T16:06:51;5.20;99.90
28530;DHT22;15737;49.760;6.632;2022-12-05T16:09:20;5.00;99.90
28530;DHT22;15737;49.760;6.632;2022-12-05T16:11:53;5.10;99.90
28530;DHT22;15737;49.760;6.632;2022-12-05T16:14:21;5.10;99.90
28530;DHT22;15737;49.760;6.632;2022-12-05T16:16:47;5.10;99.90
28530;DHT22;15737;49.760;6.632;2022-12-05T16:19:15;4.90;99.90
28530;DHT22;15737;49.760;6.632;2022-12-05T16:21:46;4.80;99.90
28530;DHT22;15737;49.760;6.632;2022-12-05T16:24:29;4.70;99.90
28530;DHT22;15737;49.760;6.632;2022-12-05T16:27:03;4.70;99.90
28530;DHT22;15737;49.760;6.632;2022-12-05T16:29:33;4.70;99.90
28530;DHT22;15737;49.760;6.632;2022-12-05T16:32:00;4.60;99.90
28530;DHT22;15737;49.760;6.632;2022-12-05T16:34:31;4.60;99.90
28530;DHT22;15737;49.760;6.632;2022-12-05T16:36:57;4.60;99.90
28530;DHT22;15737;49.760;6.632;2022-12-05T16:39:25;4.60;99.90
28530;DHT22;15737;49.760;6.632;2022-12-05T16:41:51;4.60;99.90
28530;DHT22;15737;49.760;6.632;2022-12-05T16:46:52;4.50;99.90
28530;DHT22;15737;49.760;6.632;2022-12-05T16:49:30;4.50;99.90
28530;DHT22;15737;49.760;6.632;2022-12-05T16:52:12;4.40;99.90
28530;DHT22;15737;49.760;6.632;2022-12-05T16:54:40;4.30;99.90
28530;DHT22;15737;49.760;6.632;2022-12-05T16:57:24;4.30;99.90
28530;DHT22;15737;49.760;6.632;2022-12-05T16:59:49;4.60;99.90
28530;DHT22;15737;49.760;6.632;2022-12-05T17:02:17;4.70;99.90
28530;DHT22;15737;49.760;6.632;2022-12-05T17:04:43;4.70;99.90
28530;DHT22;15737;49.760;6.632;2022-12-05T17:07:10;4.80;99.90
28530;DHT22;15737;49.760;6.632;2022-12-05T17:09:36;4.90;99.90
28530;DHT22;15737;49.760;6.632;2022-12-05T17:12:11;4.90;99.90
28530;DHT22;15737;49.760;6.632;2022-12-05T17:14:39;4.80;99.90
28530;DHT22;15737;49.760;6.632;2022-12-05T17:17:12;4.70;99.90
28530;DHT22;15737;49.760;6.632;2022-12-05T17:19:37;4.60;99.90
28530;DHT22;15737;49.760;6.632;2022-12-05T17:22:04;4.60;99.90
28530;DHT22;15737;49.760;6.632;2022-12-05T17:24:30;4.60;99.90
28530;DHT22;15737;49.760;6.632;2022-12-05T17:26:56;4.50;99.90
28530;DHT22;15737;49.760;6.632;2022-12-05T17:29:21;4.50;99.90
28530;DHT22;15737;49.760;6.632;2022-12-05T17:31:47;4.50;99.90
28530;DHT22;15737;49.760;6.632;2022-12-05T17:34:16;4.40;99.90
28530;DHT22;15737;49.760;6.632;2022-12-05T17:36:43;4.30;99.90
28530;DHT22;15737;49.760;6.632;2022-12-05T17:39:09;4.30;99.90
28530;DHT22;15737;49.760;6.632;2022-12-05T17:41:34;4.20;99.90
28530;DHT22;15737;49.760;6.632;2022-12-05T17:44:00;4.20;99.90
28530;DHT22;15737;49.760;6.632;2022-12-05T17:46:26;4.10;99.90
28530;DHT22;15737;49.760;6.632;2022-12-05T17:48:51;4.00;99.90
28530;DHT22;15737;49.760;6.632;2022-12-05T17:51:18;4.00;99.90
28530;DHT22;15737;49.760;6.632;2022-12-05T17:53:44;4.00;99.90
28530;DHT22;15737;49.760;6.632;2022-12-05T17:56:10;3.90;99.90
28530;DHT22;15737;49.760;6.632;2022-12-05T17:58:36;3.90;99.90
28530;DHT22;15737;49.760;6.632;2022-12-05T18:01:02;3.90;99.90
28530;DHT22;15737;49.760;6.632;2022-12-05T18:03:28;3.90;99.90
28530;DHT22;15737;49.760;6.632;2022-12-05T18:05:56;3.90;99.90
28530;DHT22;15737;49.760;6.632;2022-12-05T18:08:22;3.90;99.90
28530;DHT22;15737;49.760;6.632;2022-12-05T18:10:49;3.90;99.90
28530;DHT22;15737;49.760;6.632;2022-12-05T18:13:15;3.90;99.90
28530;DHT22;15737;49.760;6.632;2022-12-05T18:15:42;3.90;99.90
28530;DHT22;15737;49.760;6.632;2022-12-05T18:18:15;3.90;99.90
28530;DHT22;15737;49.760;6.632;2022-12-05T18:20:42;3.90;99.90
28530;DHT22;15737;49.760;6.632;2022-12-05T18:23:07;3.80;99.90
28530;DHT22;15737;49.760;6.632;2022-12-05T18:25:33;3.80;99.90
28530;DHT22;15737;49.760;6.632;2022-12-05T18:27:58;3.90;99.90
28530;DHT22;15737;49.760;6.632;2022-12-05T18:30:24;3.80;99.90
28530;DHT22;15737;49.760;6.632;2022-12-05T18:32:49;3.80;99.90
28530;DHT22;15737;49.760;6.632;2022-12-05T18:35:15;3.90;99.90
28530;DHT22;15737;49.760;6.632;2022-12-05T18:37:40;3.90;99.90
28530;DHT22;15737;49.760;6.632;2022-12-05T18:40:08;3.80;99.90
28530;DHT22;15737;49.760;6.632;2022-12-05T18:42:34;3.90;99.90
28530;DHT22;15737;49.760;6.632;2022-12-05T18:45:00;3.90;99.90
28530;DHT22;15737;49.760;6.632;2022-12-05T18:47:26;3.90;99.90
28530;DHT22;15737;49.760;6.632;2022-12-05T18:49:51;3.80;99.90
28530;DHT22;15737;49.760;6.632;2022-12-05T18:52:17;3.80;99.90
28530;DHT22;15737;49.760;6.632;2022-12-05T18:54:43;3.70;99.90
28530;DHT22;15737;49.760;6.632;2022-12-05T18:57:08;3.70;99.90
28530;DHT22;15737;49.760;6.632;2022-12-05T18:59:34;3.70;99.90
28530;DHT22;15737;49.760;6.632;2022-12-05T19:01:59;3.70;99.90